Time;durP1;ratioP1;P1;durP2;ratioP2;P2;SDS_P1;SDS_P2;PMS_P1;PMS_P2;Temp;Humidity;BMP_temperature;BMP_pressure;BME280_temperature;BME280_humidity;BME280_pressure;Samples;Min_cycle;Max_cycle;Signal;HPM_P1;HPM_P2
2024/03/16 00:00:43;;;;;;;;;21.50;19.50;;;;;-143.90;100.00;75476.13;4900649;28;102486;-75
2024/03/16 00:03:09;;;;;;;;;26.25;22.50;;;;;-143.90;100.00;75476.13;4881708;28;109983;-75
2024/03/16 00:05:37;;;;;;;;;23.50;20.25;;;;;-143.90;100.00;75482.34;4898010;28;102540;-75
2024/03/16 00:08:05;;;;;;;;;24.25;19.25;;;;;-143.90;100.00;75482.34;4891391;28;102632;-75
2024/03/16 00:10:31;;;;;;;;;16.50;15.00;;;;;-143.90;100.00;75480.28;4897786;28;104326;-76
2024/03/16 00:12:58;;;;;;;;;20.50;18.50;;;;;-143.90;100.00;75490.63;4887800;28;104079;-76
2024/03/16 00:15:25;;;;;;;;;8.50;7.75;;;;;-143.90;100.00;75488.53;4891392;28;102565;-76
2024/03/16 00:17:53;;;;;;;;;11.75;9.50;;;;;-143.90;100.00;75490.63;4898699;28;102039;-77
2024/03/16 00:20:19;;;;;;;;;30.00;21.75;;;;;-143.90;100.00;75490.63;4879134;28;101985;-76
2024/03/16 00:22:46;;;;;;;;;20.75;19.50;;;;;-143.90;100.00;75492.69;4894909;28;103526;-76
2024/03/16 00:25:14;;;;;;;;;21.25;18.75;;;;;-143.90;100.00;75490.63;4900070;28;102365;-77
2024/03/16 00:27:41;;;;;;;;;22.00;19.00;;;;;-143.90;100.00;75488.53;4896402;28;102396;-76
2024/03/16 00:30:10;;;;;;;;;21.75;19.25;;;;;-143.90;100.00;75494.75;4902161;28;102441;-76
2024/03/16 00:32:38;;;;;;;;;19.50;17.25;;;;;-143.90;100.00;75486.47;4899191;28;103984;-76
2024/03/16 00:35:05;;;;;;;;;15.50;10.00;;;;;-143.90;100.00;75492.69;4887319;28;102034;-77
2024/03/16 00:37:32;;;;;;;;;33.75;29.00;;;;;-143.90;100.00;75496.81;4888913;28;102577;-76
2024/03/16 00:39:58;;;;;;;;;39.50;34.25;;;;;-143.90;100.00;75500.94;4901044;28;102544;-77
2024/03/16 00:42:25;;;;;;;;;11.75;10.25;;;;;-143.90;100.00;75503.03;4896082;28;104019;-77
2024/03/16 00:44:52;;;;;;;;;34.00;24.50;;;;;-143.90;100.00;75511.28;4891133;28;102360;-73
2024/03/16 00:47:19;;;;;;;;;28.75;23.50;;;;;-143.90;100.00;75517.50;4890767;28;103746;-75
2024/03/16 00:49:45;;;;;;;;;74.33;56.00;;;;;-143.90;100.00;75542.31;4900889;28;102915;-75
2024/03/16 00:52:12;;;;;;;;;76.00;58.00;;;;;-143.90;100.00;75552.63;4904404;28;104185;-76
2024/03/16 00:54:39;;;;;;;;;67.67;53.00;;;;;-143.90;100.00;75552.63;4890535;28;102126;-74
2024/03/16 00:57:06;;;;;;;;;67.00;50.33;;;;;-143.90;100.00;75554.72;4891854;28;102835;-75
2024/03/16 00:59:32;;;;;;;;;55.00;42.00;;;;;-143.90;100.00;75554.72;4894840;28;105546;-75
2024/03/16 01:01:59;;;;;;;;;57.00;39.50;;;;;-143.90;100.00;75548.50;4872728;28;104138;-76
2024/03/16 01:04:26;;;;;;;;;46.75;38.50;;;;;-143.90;100.00;75546.44;4901150;28;102671;-75
2024/03/16 01:06:53;;;;;;;;;51.75;39.25;;;;;-143.90;100.00;75550.56;4888433;28;102546;-74
2024/03/16 01:09:20;;;;;;;;;59.00;43.25;;;;;-143.90;100.00;75554.72;4898418;28;102339;-76
2024/03/16 01:11:46;;;;;;;;;54.75;42.25;;;;;-143.90;100.00;75554.72;4902170;28;104160;-75
2024/03/16 01:14:13;;;;;;;;;32.00;30.00;;;;;-143.90;100.00;75552.63;4901210;28;102093;-75
2024/03/16 01:16:39;;;;;;;;;45.50;35.75;;;;;-143.90;100.00;75565.03;4901260;28;107555;-75
2024/03/16 01:19:06;;;;;;;;;42.50;32.00;;;;;-143.90;100.00;75556.78;4889514;28;102649;-75
2024/03/16 01:21:33;;;;;;;;;46.75;36.00;;;;;-143.90;100.00;75556.78;4877912;28;103945;-75
2024/03/16 01:23:59;;;;;;;;;43.75;35.25;;;;;-143.90;100.00;75565.03;4902763;28;102561;-76
2024/03/16 01:26:26;;;;;;;;;35.25;29.25;;;;;-143.90;100.00;75565.03;4893502;28;104800;-76
2024/03/16 01:28:52;;;;;;;;;36.50;34.00;;;;;-143.90;100.00;75569.19;4882527;28;102419;-74
2024/03/16 01:31:19;;;;;;;;;40.25;34.25;;;;;-143.90;100.00;75565.03;4892799;28;104086;-76
2024/03/16 01:33:46;;;;;;;;;51.00;40.00;;;;;-143.90;100.00;75560.91;4897317;28;102358;-76
2024/03/16 01:36:14;;;;;;;;;33.25;31.25;;;;;-143.90;100.00;75546.44;4902934;28;102114;-76
2024/03/16 01:38:40;;;;;;;;;24.50;23.50;;;;;-143.90;100.00;75540.22;4903526;28;102939;-76
2024/03/16 01:41:07;;;;;;;;;27.50;24.00;;;;;-143.90;100.00;75542.31;4885103;28;104136;-75
2024/03/16 01:43:33;;;;;;;;;23.75;20.00;;;;;-143.90;100.00;75531.97;4883282;28;104538;-76
2024/03/16 01:46:00;;;;;;;;;26.00;21.50;;;;;-143.90;100.00;75523.69;4899851;28;102386;-75
2024/03/16 01:48:27;;;;;;;;;23.50;21.00;;;;;-143.90;100.00;75519.56;4899638;28;102524;-76
2024/03/16 01:50:54;;;;;;;;;20.50;19.25;;;;;-143.90;100.00;75511.28;4891373;28;104009;-74
2024/03/16 01:53:21;;;;;;;;;13.00;12.75;;;;;-143.90;100.00;75500.94;4893422;28;103833;-75
2024/03/16 01:55:48;;;;;;;;;14.00;10.50;;;;;-143.90;100.00;75498.88;4901872;28;101960;-74
2024/03/16 01:58:14;;;;;;;;;14.50;11.00;;;;;-143.90;100.00;75490.63;4907206;28;102488;-75
2024/03/16 02:00:46;;;;;;;;;16.50;15.00;;;;;-143.90;100.00;75480.28;4898846;28;108679;-77
2024/03/16 02:03:14;;;;;;;;;20.00;17.00;;;;;-143.90;100.00;75465.81;4881447;28;102612;-74
2024/03/16 02:05:46;;;;;;;;;12.25;11.75;;;;;-143.90;100.00;75469.94;4902617;28;102824;-77
2024/03/16 02:08:12;;;;;;;;;10.25;9.00;;;;;-143.90;100.00;75465.81;4878554;28;103777;-74
2024/03/16 02:10:39;;;;;;;;;16.00;14.75;;;;;-143.90;100.00;75469.94;4901194;28;104091;-75
2024/03/16 02:13:06;;;;;;;;;17.25;13.75;;;;;-143.90;100.00;75463.72;4896550;28;102256;-75
2024/03/16 02:15:33;;;;;;;;;17.25;14.75;;;;;-143.90;100.00;75459.59;4882114;28;102322;-74
2024/03/16 02:18:00;;;;;;;;;12.75;9.75;;;;;-143.90;100.00;75455.47;4901265;28;102085;-75
2024/03/16 02:20:26;;;;;;;;;13.50;13.25;;;;;-143.90;100.00;75453.41;4899734;28;104121;-74
2024/03/16 02:22:53;;;;;;;;;10.75;10.25;;;;;-143.90;100.00;75449.25;4905129;28;102665;-75
2024/03/16 02:25:20;;;;;;;;;14.50;13.50;;;;;-143.90;100.00;75457.53;4882877;28;102854;-75
2024/03/16 02:27:47;;;;;;;;;10.25;6.50;;;;;-143.90;100.00;75447.19;4881682;28;102456;-75
2024/03/16 02:30:14;;;;;;;;;13.00;13.00;;;;;-143.90;100.00;75441.00;4896518;28;103944;-75
2024/03/16 02:32:41;;;;;;;;;12.00;12.00;;;;;-143.90;100.00;75436.84;4896718;28;102535;-75
2024/03/16 02:35:09;;;;;;;;;14.00;12.50;;;;;-143.90;100.00;75436.84;4896933;28;101975;-75
2024/03/16 02:37:36;;;;;;;;;8.00;7.00;;;;;-143.90;100.00;75432.72;4887855;28;103709;-75
2024/03/16 02:40:03;;;;;;;;;9.00;5.75;;;;;-143.90;100.00;75420.31;4901649;28;104087;-75
2024/03/16 02:42:30;;;;;;;;;10.50;9.50;;;;;-143.90;100.00;75424.44;4905359;28;101916;-74
2024/03/16 02:44:57;;;;;;;;;11.50;9.50;;;;;-143.90;100.00;75416.19;4896621;28;102164;-76
2024/03/16 02:47:24;;;;;;;;;11.75;7.25;;;;;-143.90;100.00;75407.91;4898029;28;104907;-75
2024/03/16 02:49:51;;;;;;;;;12.50;11.00;;;;;-143.90;100.00;75414.13;4882757;28;109178;-75
2024/03/16 02:52:17;;;;;;;;;13.00;12.00;;;;;-143.90;100.00;75403.78;4901248;28;102647;-76
2024/03/16 02:54:44;;;;;;;;;9.00;8.25;;;;;-143.90;100.00;75401.72;4892246;28;102081;-75
2024/03/16 02:57:11;;;;;;;;;8.00;7.25;;;;;-143.90;100.00;75395.50;4900376;28;104145;-75
2024/03/16 02:59:37;;;;;;;;;9.75;9.75;;;;;-143.90;100.00;75403.78;4882259;28;105072;-76
2024/03/16 03:02:05;;;;;;;;;18.50;13.50;;;;;-143.90;100.00;75393.44;4893227;28;103389;-75
2024/03/16 03:04:32;;;;;;;;;14.00;10.00;;;;;-143.90;100.00;75395.50;4899829;28;102310;-75
2024/03/16 03:06:58;;;;;;;;;13.00;13.00;;;;;-143.90;100.00;75395.50;4889889;28;102371;-75
2024/03/16 03:09:26;;;;;;;;;10.25;9.00;;;;;-143.90;100.00;75391.38;4898314;28;103974;-75
2024/03/16 03:11:53;;;;;;;;;15.50;14.75;;;;;-143.90;100.00;75401.72;4894984;28;103310;-75
2024/03/16 03:14:19;;;;;;;;;17.75;15.25;;;;;-143.90;100.00;75403.78;4884439;28;105949;-75
2024/03/16 03:16:46;;;;;;;;;13.75;11.25;;;;;-143.90;100.00;75403.78;4903242;28;102451;-74
2024/03/16 03:19:13;;;;;;;;;14.50;13.00;;;;;-143.90;100.00;75399.63;4897704;28;104058;-74
2024/03/16 03:21:39;;;;;;;;;11.50;11.50;;;;;-143.90;100.00;75399.63;4872360;28;103430;-74
2024/03/16 03:24:07;;;;;;;;;14.00;13.00;;;;;-143.90;100.00;75387.22;4896037;28;104455;-76
2024/03/16 03:26:34;;;;;;;;;10.50;9.00;;;;;-143.90;100.00;75389.31;4899599;28;102200;-76
2024/03/16 03:29:00;;;;;;;;;14.00;13.00;;;;;-143.90;100.00;75387.22;4899149;28;104062;-75
2024/03/16 03:31:27;;;;;;;;;8.25;7.75;;;;;-143.90;100.00;75374.84;4888726;28;102296;-76
2024/03/16 03:33:54;;;;;;;;;9.25;9.00;;;;;-143.90;100.00;75385.16;4893869;28;102784;-76
2024/03/16 03:36:20;;;;;;;;;7.00;7.00;;;;;-143.90;100.00;75389.31;4889265;28;103000;-76
2024/03/16 03:38:47;;;;;;;;;8.50;5.50;;;;;-143.90;100.00;75387.22;4893524;28;104270;-76
2024/03/16 03:41:14;;;;;;;;;7.75;7.75;;;;;-143.90;100.00;75389.31;4891964;28;102380;-77
2024/03/16 03:43:46;;;;;;;;;9.50;9.50;;;;;-143.90;100.00;75391.38;4891710;28;102511;-74
2024/03/16 03:46:29;;;;;;;;;4.00;4.00;;;;;-143.90;100.00;75399.63;4897938;28;102054;-76
2024/03/16 03:49:11;;;;;;;;;6.75;5.50;;;;;-143.90;100.00;75405.84;4890704;28;108783;-74
2024/03/16 03:51:38;;;;;;;;;9.00;8.50;;;;;-143.90;100.00;75412.03;4889172;28;102118;-75
2024/03/16 03:54:06;;;;;;;;;9.75;8.00;;;;;-143.90;100.00;75418.25;4898890;28;102056;-76
2024/03/16 03:56:34;;;;;;;;;13.00;12.50;;;;;-143.90;100.00;75428.59;4897648;28;102429;-76
2024/03/16 03:59:02;;;;;;;;;19.00;15.25;;;;;-143.90;100.00;75426.50;4885880;28;103967;-76
2024/03/16 04:01:28;;;;;;;;;13.50;10.00;;;;;-143.90;100.00;75426.50;4879013;28;102160;-77
2024/03/16 04:03:56;;;;;;;;;11.50;8.00;;;;;-143.90;100.00;75434.78;4886546;28;102264;-74
2024/03/16 04:06:24;;;;;;;;;15.50;13.75;;;;;-143.90;100.00;75436.84;4894778;28;102492;-76
2024/03/16 04:08:51;;;;;;;;;13.00;11.25;;;;;-143.90;100.00;75441.00;4903016;28;108725;-76
2024/03/16 04:11:17;;;;;;;;;12.00;10.00;;;;;-143.90;100.00;75451.31;4902719;28;102008;-75
2024/03/16 04:13:44;;;;;;;;;13.50;10.50;;;;;-143.90;100.00;75451.31;4881452;28;102442;-78
2024/03/16 04:16:14;;;;;;;;;11.00;9.00;;;;;-143.90;100.00;75463.72;4900285;28;102508;-76
2024/03/16 04:18:41;;;;;;;;;12.00;12.00;;;;;-143.90;100.00;75463.72;4896586;28;103720;-75
2024/03/16 04:21:08;;;;;;;;;11.00;9.50;;;;;-143.90;100.00;75465.81;4899040;28;102179;-76
2024/03/16 04:23:35;;;;;;;;;10.00;9.25;;;;;-143.90;100.00;75465.81;4892729;28;101998;-74
2024/03/16 04:26:01;;;;;;;;;14.50;12.75;;;;;-143.90;100.00;75465.81;4896431;28;102519;-76
2024/03/16 04:28:28;;;;;;;;;9.00;9.00;;;;;-143.90;100.00;75457.53;4898140;28;104292;-76
2024/03/16 04:30:54;;;;;;;;;11.50;9.00;;;;;-143.90;100.00;75463.72;4895120;28;102447;-75
2024/03/16 04:33:21;;;;;;;;;6.25;6.25;;;;;-143.90;100.00;75457.53;4887737;28;102473;-76
2024/03/16 04:35:48;;;;;;;;;14.00;12.50;;;;;-143.90;100.00;75461.66;4880520;28;103708;-75
2024/03/16 04:38:14;;;;;;;;;8.75;7.00;;;;;-143.90;100.00;75463.72;4894382;28;104129;-76
2024/03/16 04:40:42;;;;;;;;;5.25;5.25;;;;;-143.90;100.00;75465.81;4902567;28;102494;-76
2024/03/16 04:43:09;;;;;;;;;9.50;9.25;;;;;-143.90;100.00;75469.94;4904128;28;102069;-76
2024/03/16 04:45:36;;;;;;;;;7.75;6.00;;;;;-143.90;100.00;75474.06;4898928;28;104171;-76
2024/03/16 04:48:04;;;;;;;;;4.50;4.00;;;;;-143.90;100.00;75474.06;4895376;28;103022;-76
2024/03/16 04:50:31;;;;;;;;;5.25;5.25;;;;;-143.90;100.00;75469.94;4900963;28;102234;-77
2024/03/16 04:52:57;;;;;;;;;7.00;7.00;;;;;-143.90;100.00;75474.06;4902387;28;101983;-75
2024/03/16 04:55:24;;;;;;;;;11.00;8.75;;;;;-143.90;100.00;75465.81;4884959;28;103953;-76
2024/03/16 04:57:51;;;;;;;;;12.25;9.00;;;;;-143.90;100.00;75472.00;4891290;28;103952;-76
2024/03/16 05:00:18;;;;;;;;;20.25;16.75;;;;;-143.90;100.00;75474.06;4903072;28;102327;-75
2024/03/16 05:02:44;;;;;;;;;14.00;13.00;;;;;-143.90;100.00;75474.06;4898613;28;102057;-74
2024/03/16 05:05:11;;;;;;;;;14.50;10.25;;;;;-143.90;100.00;75465.81;4901462;28;104373;-75
2024/03/16 05:07:38;;;;;;;;;16.75;12.25;;;;;-143.90;100.00;75472.00;4883207;28;104845;-75
2024/03/16 05:10:05;;;;;;;;;19.75;12.00;;;;;-143.90;100.00;75465.81;4887158;28;102121;-75
2024/03/16 05:12:31;;;;;;;;;13.50;9.25;;;;;-143.90;100.00;75463.72;4899639;28;102456;-75
2024/03/16 05:14:58;;;;;;;;;12.75;9.00;;;;;-143.90;100.00;75459.59;4891997;28;102417;-75
2024/03/16 05:17:25;;;;;;;;;13.00;10.25;;;;;-143.90;100.00;75453.41;4895354;28;104238;-76
2024/03/16 05:19:52;;;;;;;;;16.00;15.00;;;;;-143.90;100.00;75457.53;4895917;28;102197;-76
2024/03/16 05:22:19;;;;;;;;;20.00;15.50;;;;;-143.90;100.00;75449.25;4890068;28;102163;-77
2024/03/16 05:24:46;;;;;;;;;18.00;14.50;;;;;-143.90;100.00;75445.13;4892236;28;102499;-75
2024/03/16 05:27:15;;;;;;;;;15.00;13.00;;;;;-143.90;100.00;75445.13;4896397;28;104253;-76
2024/03/16 05:29:42;;;;;;;;;11.50;10.00;;;;;-143.90;100.00;75441.00;4895230;28;104596;-76
2024/03/16 05:32:08;;;;;;;;;12.50;12.50;;;;;-143.90;100.00;75432.72;4892390;28;102257;-76
2024/03/16 05:34:35;;;;;;;;;19.75;19.00;;;;;-143.90;100.00;75424.44;4901466;28;104274;-75
2024/03/16 05:37:02;;;;;;;;;13.75;13.00;;;;;-143.90;100.00;75412.03;4898304;28;104851;-75
2024/03/16 05:39:28;;;;;;;;;15.00;13.50;;;;;-143.90;100.00;75414.13;4893834;28;103596;-75
2024/03/16 05:41:55;;;;;;;;;13.75;10.75;;;;;-143.90;100.00;75399.63;4894724;28;102342;-75
2024/03/16 05:44:22;;;;;;;;;15.50;13.75;;;;;-143.90;100.00;75391.38;4902169;28;101928;-75
2024/03/16 05:46:48;;;;;;;;;13.75;11.50;;;;;-143.90;100.00;75383.09;4895031;28;103551;-75
2024/03/16 05:49:15;;;;;;;;;12.25;11.75;;;;;-143.90;100.00;75378.97;4900085;28;102526;-72
2024/03/16 05:51:43;;;;;;;;;14.50;11.75;;;;;-143.90;100.00;75374.84;4891641;28;103518;-75
2024/03/16 05:54:09;;;;;;;;;14.50;13.50;;;;;-143.90;100.00;75362.44;4900983;28;102119;-74
2024/03/16 05:56:37;;;;;;;;;12.25;11.00;;;;;-143.90;100.00;75360.34;4893942;28;104750;-76
2024/03/16 05:59:04;;;;;;;;;10.75;10.00;;;;;-143.90;100.00;75345.88;4894240;28;102638;-76
2024/03/16 06:01:30;;;;;;;;;11.25;9.50;;;;;-143.90;100.00;75341.75;4885104;28;102615;-77
2024/03/16 06:03:57;;;;;;;;;12.00;10.50;;;;;-143.90;100.00;75341.75;4895499;28;102159;-76
2024/03/16 06:06:24;;;;;;;;;14.75;13.00;;;;;-143.90;100.00;75333.47;4897730;28;104075;-76
2024/03/16 06:08:51;;;;;;;;;10.75;10.50;;;;;-143.90;100.00;75333.47;4889534;28;102091;-75
2024/03/16 06:11:17;;;;;;;;;14.50;11.75;;;;;-143.90;100.00;75321.06;4889164;28;103813;-74
2024/03/16 06:13:45;;;;;;;;;9.75;9.75;;;;;-143.90;100.00;75316.94;4896269;28;102395;-75
2024/03/16 06:16:11;;;;;;;;;11.00;10.50;;;;;-143.90;100.00;75304.53;4897833;28;108648;-75
2024/03/16 06:18:40;;;;;;;;;12.75;10.00;;;;;-143.90;100.00;75304.53;4895982;28;102195;-75
2024/03/16 06:21:09;;;;;;;;;10.00;9.25;;;;;-143.90;100.00;75288.00;4883401;28;104924;-75
2024/03/16 06:23:36;;;;;;;;;12.75;9.50;;;;;-143.90;100.00;75283.84;4871762;28;102432;-75
2024/03/16 06:26:03;;;;;;;;;9.75;9.25;;;;;-143.90;100.00;75275.59;4889882;28;104070;-75
2024/03/16 06:28:33;;;;;;;;;9.00;9.00;;;;;-143.90;100.00;75263.19;4891032;28;102491;-75
2024/03/16 06:31:07;;;;;;;;;10.75;10.25;;;;;-143.90;100.00;75265.25;4888376;28;102550;-75
2024/03/16 06:33:34;;;;;;;;;12.50;11.00;;;;;-143.90;100.00;75254.91;4888516;28;102078;-74
2024/03/16 06:36:01;;;;;;;;;14.00;12.50;;;;;-143.90;100.00;75256.97;4888349;28;104039;-75
2024/03/16 06:38:29;;;;;;;;;14.00;11.00;;;;;-143.90;100.00;75242.50;4899796;28;102001;-76
2024/03/16 06:40:56;;;;;;;;;13.75;12.00;;;;;-143.90;100.00;75230.09;4896974;28;102419;-76
2024/03/16 06:43:23;;;;;;;;;9.00;8.00;;;;;-143.90;100.00;75219.78;4899081;28;102423;-76
2024/03/16 06:45:50;;;;;;;;;10.50;9.50;;;;;-143.90;100.00;75203.22;4876883;28;104401;-75
2024/03/16 06:48:17;;;;;;;;;12.50;9.50;;;;;-143.90;100.00;75190.81;4905710;28;102061;-75
2024/03/16 06:50:46;;;;;;;;;12.50;9.75;;;;;-143.90;100.00;75180.50;4896975;28;102447;-76
2024/03/16 06:53:13;;;;;;;;;11.50;10.00;;;;;-143.90;100.00;75176.34;4902118;28;102076;-75
2024/03/16 06:55:40;;;;;;;;;13.50;12.25;;;;;-143.90;100.00;75159.81;4885452;28;106236;-77
2024/03/16 06:58:08;;;;;;;;;16.25;11.25;;;;;-143.90;100.00;75147.41;4902940;28;102253;-75
2024/03/16 07:00:35;;;;;;;;;11.00;9.75;;;;;-143.90;100.00;75135.00;4903663;28;102519;-76
2024/03/16 07:03:02;;;;;;;;;9.00;8.50;;;;;-143.90;100.00;75128.81;4891520;28;103763;-76
2024/03/16 07:05:29;;;;;;;;;15.67;14.00;;;;;-143.90;100.00;75126.75;4707049;28;5002650;-76
2024/03/16 07:07:55;;;;;;;;;18.00;16.75;;;;;-143.90;100.00;75120.53;4877217;28;103769;-76
2024/03/16 07:10:23;;;;;;;;;18.75;17.25;;;;;-143.90;100.00;75110.19;4884027;28;102235;-75
2024/03/16 07:12:50;;;;;;;;;20.75;17.50;;;;;-143.90;100.00;75101.94;4897340;28;102458;-76
2024/03/16 07:15:16;;;;;;;;;14.75;14.25;;;;;-143.90;100.00;75097.78;4890205;28;103995;-74
2024/03/16 07:17:43;;;;;;;;;17.25;15.50;;;;;-143.90;100.00;75093.66;4880636;28;102477;-79
2024/03/16 07:20:11;;;;;;;;;15.00;13.00;;;;;-143.90;100.00;75085.38;4888245;28;106022;-77
2024/03/16 07:22:38;;;;;;;;;22.00;18.00;;;;;-143.90;100.00;75089.53;4891916;28;102076;-76
2024/03/16 07:25:05;;;;;;;;;16.00;13.00;;;;;-143.90;100.00;75081.25;4894012;28;104337;-76
2024/03/16 07:27:32;;;;;;;;;14.00;14.00;;;;;-143.90;100.00;75064.72;4884524;28;102115;-75
2024/03/16 07:29:59;;;;;;;;;17.25;15.25;;;;;-143.90;100.00;75056.44;4874486;28;102251;-77
2024/03/16 07:32:26;;;;;;;;;13.50;13.50;;;;;-143.90;100.00;75044.03;4901784;28;102591;-76
2024/03/16 07:34:52;;;;;;;;;18.00;16.25;;;;;-143.90;100.00;75033.72;4894203;28;104177;-77
2024/03/16 07:37:19;;;;;;;;;16.75;16.25;;;;;-143.90;100.00;75019.22;4895092;28;102383;-76
2024/03/16 07:39:45;;;;;;;;;18.75;13.50;;;;;-143.90;100.00;75000.63;4880692;28;104279;-74
2024/03/16 07:42:12;;;;;;;;;13.50;11.75;;;;;-143.90;100.00;74986.16;4893249;28;105263;-76
2024/03/16 07:44:40;;;;;;;;;15.50;12.75;;;;;-143.90;100.00;74969.63;4895160;28;104764;-77
2024/03/16 07:47:07;;;;;;;;;13.50;11.75;;;;;-143.90;100.00;74959.28;4898339;28;103057;-77
2024/03/16 07:49:34;;;;;;;;;12.50;11.50;;;;;-143.90;100.00;74955.16;4882879;28;102085;-76
2024/03/16 07:52:02;;;;;;;;;13.25;11.00;;;;;-143.90;100.00;74948.94;4897536;28;102278;-77
2024/03/16 07:54:29;;;;;;;;;11.75;11.75;;;;;-143.90;100.00;74934.47;4888255;28;104047;-76
2024/03/16 07:56:57;;;;;;;;;13.25;10.75;;;;;-143.90;100.00;74922.06;4885646;28;102244;-76
2024/03/16 07:59:24;;;;;;;;;14.50;12.00;;;;;-143.90;100.00;74911.72;4893592;28;102376;-76
2024/03/16 08:01:52;;;;;;;;;13.50;12.25;;;;;-143.90;100.00;74903.47;4891180;28;104810;-77
2024/03/16 08:04:19;;;;;;;;;11.50;11.25;;;;;-143.90;100.00;74882.78;4888415;28;104142;-75
2024/03/16 08:06:46;;;;;;;;;12.00;9.00;;;;;-143.90;100.00;74874.53;4893431;28;102038;-75
2024/03/16 08:09:12;;;;;;;;;14.50;11.75;;;;;-143.90;100.00;74866.25;4893754;28;102267;-77
2024/03/16 08:11:41;;;;;;;;;17.75;14.75;;;;;-143.90;100.00;74858.00;4880042;28;102090;-76
2024/03/16 08:14:08;;;;;;;;;12.75;11.25;;;;;-143.90;100.00;74818.72;4885633;28;103983;-75
2024/03/16 08:16:36;;;;;;;;;13.75;12.50;;;;;-143.90;100.00;74816.66;4896889;28;101936;-77
2024/03/16 08:19:03;;;;;;;;;10.50;10.50;;;;;-143.90;100.00;74798.03;4878269;28;102629;-77
2024/03/16 08:21:30;;;;;;;;;13.00;10.00;;;;;-143.90;100.00;74791.84;4870991;28;102130;-77
2024/03/16 08:23:57;;;;;;;;;20.75;16.00;;;;;-143.90;100.00;74808.38;4884077;28;103918;-75
2024/03/16 08:26:23;;;;;;;;;17.75;17.00;;;;;-143.90;100.00;74810.44;4898516;28;103467;-78
2024/03/16 08:28:50;;;;;;;;;14.00;13.00;;;;;-143.90;100.00;74791.84;4878100;28;102133;-76
2024/03/16 08:31:16;;;;;;;;;11.00;11.00;;;;;-143.90;100.00;74775.31;4893678;28;102496;-74
2024/03/16 08:33:43;;;;;;;;;11.00;9.00;;;;;-143.90;100.00;74756.69;4875789;28;104626;-76
2024/03/16 08:36:10;;;;;;;;;8.50;7.50;;;;;-143.90;100.00;74746.34;4888359;28;102435;-76
2024/03/16 08:38:37;;;;;;;;;12.00;10.00;;;;;-143.90;100.00;74746.34;4895310;28;102101;-76
2024/03/16 08:41:03;;;;;;;;;18.50;15.50;;;;;-143.90;100.00;74756.69;4890020;28;102271;-76
2024/03/16 08:43:31;;;;;;;;;16.75;13.00;;;;;-143.90;100.00;74752.56;4887965;28;104781;-74
2024/03/16 08:46:05;;;;;;;;;11.25;11.00;;;;;-143.90;100.00;74767.03;4889900;28;102304;-76
2024/03/16 08:48:32;;;;;;;;;13.50;13.00;;;;;-143.90;100.00;74769.09;4898864;28;102244;-76
2024/03/16 08:50:59;;;;;;;;;14.50;12.75;;;;;-143.90;100.00;74781.50;4896086;28;102391;-76
2024/03/16 08:53:26;;;;;;;;;14.00;12.25;;;;;-143.90;100.00;74777.38;4894624;28;104119;-76
2024/03/16 08:55:58;;;;;;;;;14.25;13.00;;;;;-143.90;100.00;74769.09;4885065;28;102394;-75
2024/03/16 08:58:25;;;;;;;;;12.25;12.25;;;;;-143.90;100.00;74752.56;4893640;28;102944;-77
2024/03/16 09:00:53;;;;;;;;;11.00;10.50;;;;;-143.90;100.00;74738.09;4898488;28;103721;-76
2024/03/16 09:03:21;;;;;;;;;12.25;10.75;;;;;-143.90;100.00;74713.28;4880803;28;104418;-75
2024/03/16 09:05:47;;;;;;;;;14.00;14.00;;;;;-143.90;100.00;74709.16;4892396;28;102006;-75
2024/03/16 09:08:14;;;;;;;;;17.00;15.50;;;;;-143.90;100.00;74713.28;4902696;28;102433;-79
2024/03/16 09:10:41;;;;;;;;;14.75;14.50;;;;;-143.90;100.00;74713.28;4885540;28;103118;-76
2024/03/16 09:13:08;;;;;;;;;12.75;11.50;;;;;-143.90;100.00;74692.63;4902480;28;104177;-76
2024/03/16 09:15:35;;;;;;;;;16.75;14.75;;;;;-143.90;100.00;74690.53;4891671;28;102569;-76
2024/03/16 09:18:03;;;;;;;;;13.75;12.25;;;;;-143.90;100.00;74690.53;4901746;28;103624;-75
2024/03/16 09:20:30;;;;;;;;;14.00;13.25;;;;;-143.90;100.00;74684.34;4906104;28;102639;-75
2024/03/16 09:22:59;;;;;;;;;23.75;18.00;;;;;-143.90;100.00;74705.00;4909344;28;104139;-76
2024/03/16 09:25:26;;;;;;;;;14.75;14.00;;;;;-143.90;100.00;74696.75;4899418;28;102153;-78
2024/03/16 09:27:53;;;;;;;;;22.75;18.75;;;;;-143.90;100.00;74692.63;4886204;28;104265;-76
2024/03/16 09:30:20;;;;;;;;;19.50;17.00;;;;;-143.90;100.00;74676.06;4901044;28;102335;-76
2024/03/16 09:32:46;;;;;;;;;15.00;13.25;;;;;-143.90;100.00;74659.53;4900624;28;104202;-75
2024/03/16 09:35:13;;;;;;;;;16.75;14.50;;;;;-143.90;100.00;74657.47;4899333;28;102492;-76
2024/03/16 09:37:39;;;;;;;;;15.25;14.00;;;;;-143.90;100.00;74638.88;4885130;28;102941;-77
2024/03/16 09:40:13;;;;;;;;;15.50;14.25;;;;;-143.90;71.24;74630.59;4907958;28;102503;-76
2024/03/16 09:42:40;;;;;;;;;16.25;14.25;;;;;-143.90;72.70;74628.53;4888725;28;103456;-75
2024/03/16 09:45:29;;;;;;;;;14.00;12.00;;;;;-143.90;71.50;74626.47;4904449;28;102412;-75
2024/03/16 09:47:55;;;;;;;;;13.00;12.00;;;;;-143.90;71.23;74630.59;4900731;28;102598;-78
2024/03/16 09:50:28;;;;;;;;;10.75;10.25;;;;;-143.90;70.61;74618.19;4884934;28;102490;-76
2024/03/16 09:52:55;;;;;;;;;11.50;8.75;;;;;-143.90;70.96;74614.06;4885684;28;104630;-77
2024/03/16 09:55:23;;;;;;;;;16.00;12.25;;;;;-143.90;70.84;74616.13;4884005;28;104961;-76
2024/03/16 09:57:52;;;;;;;;;14.75;13.00;;;;;-143.90;71.30;74597.53;4879446;28;102255;-77
2024/03/16 10:00:18;;;;;;;;;7.00;7.00;;;;;-143.90;69.57;74570.66;4884078;28;102251;-76
2024/03/16 10:02:44;;;;;;;;;15.25;12.00;;;;;-143.90;68.25;74574.78;4882450;28;104469;-75
2024/03/16 10:05:12;;;;;;;;;16.25;15.00;;;;;-143.90;70.36;74601.66;4878011;28;102439;-74
2024/03/16 10:07:39;;;;;;;;;11.75;11.75;;;;;-143.90;69.87;74595.47;4865194;28;102350;-75
2024/03/16 10:10:10;;;;;;;;;16.75;16.00;;;;;-143.90;71.81;74609.94;4890369;28;102130;-75
2024/03/16 10:12:38;;;;;;;;;9.25;8.75;;;;;-143.90;70.16;74585.13;4884843;28;104772;-75
2024/03/16 10:15:09;;;;;;;;;9.00;8.75;;;;;-143.90;69.15;74574.78;4884519;28;102222;-76
2024/03/16 10:17:38;;;;;;;;;9.50;9.00;;;;;-143.90;69.46;74539.66;4888420;28;102511;-75
2024/03/16 10:20:15;;;;;;;;;6.75;6.50;;;;;-143.90;67.56;74514.84;4885607;28;102542;-75
2024/03/16 10:22:45;;;;;;;;;9.00;7.75;;;;;-143.90;68.89;74487.97;4881407;28;104861;-76
2024/03/16 10:25:13;;;;;;;;;9.75;7.75;;;;;-143.90;67.05;74487.97;4855321;28;102091;-75
2024/03/16 10:27:39;;;;;;;;;20.50;17.25;;;;;-143.90;68.33;74529.31;4868872;28;104013;-75
2024/03/16 10:30:16;;;;;;;;;15.50;12.75;;;;;-143.90;68.36;74512.78;4887125;28;103059;-76
2024/03/16 10:32:48;;;;;;;;;10.00;9.25;;;;;-143.90;67.80;74473.50;4880089;28;107617;-75
2024/03/16 10:35:25;;;;;;;;;12.25;10.00;;;;;-143.90;65.66;74454.91;4877032;28;102446;-76
2024/03/16 10:37:51;;;;;;;;;11.50;8.00;;;;;-143.90;64.42;74448.69;4888388;28;102117;-75
2024/03/16 10:40:18;;;;;;;;;10.75;10.75;;;;;-143.90;66.52;74467.31;4889757;28;102346;-76
2024/03/16 10:42:45;;;;;;;;;14.25;13.25;;;;;-143.90;66.78;74463.16;4890041;28;109022;-75
2024/03/16 10:45:13;;;;;;;;;13.75;11.50;;;;;-143.90;67.10;74432.16;4874585;28;102121;-76
2024/03/16 10:47:55;;;;;;;;;11.00;10.75;;;;;-143.90;65.17;74399.09;4874952;28;102142;-76
2024/03/16 10:50:25;;;;;;;;;9.00;8.25;;;;;-143.90;64.10;74380.47;4898056;28;102530;-76